Time;durP1;ratioP1;P1;durP2;ratioP2;P2;SDS_P1;SDS_P2;PMS_P1;PMS_P2;Temp;Humidity;BMP_temperature;BMP_pressure;BME280_temperature;BME280_humidity;BME280_pressure;Samples;Min_cycle;Max_cycle;Signal;HPM_P1;HPM_P2
2022/12/16 00:02:18;;;;;;;55.78;34.50;;;;;;;-3.61;100.00;100922.69;5259878;28;20022;-84
2022/12/16 00:04:49;;;;;;;61.28;36.45;;;;;;;-3.54;100.00;100922.47;5261899;28;20383;-83
2022/12/16 00:07:21;;;;;;;59.47;37.00;;;;;;;-3.46;100.00;100923.91;5261985;28;20021;-84
2022/12/16 00:09:52;;;;;;;61.72;38.50;;;;;;;-3.38;100.00;100926.28;5261019;28;20048;-83
2022/12/16 00:12:23;;;;;;;57.08;36.83;;;;;;;-3.30;100.00;100928.63;5260931;28;20057;-83
2022/12/16 00:14:55;;;;;;;51.83;33.10;;;;;;;-3.19;100.00;100917.81;5260692;28;20105;-83
2022/12/16 00:17:26;;;;;;;60.97;35.13;;;;;;;-3.16;100.00;100918.56;5260970;28;20021;-83
2022/12/16 00:19:57;;;;;;;52.35;32.65;;;;;;;-3.06;100.00;100921.72;5256570;28;20446;-83
2022/12/16 00:22:29;;;;;;;56.70;36.13;;;;;;;-3.01;100.00;100921.56;5282825;28;20021;-84
2022/12/16 00:25:00;;;;;;;54.05;33.97;;;;;;;-2.93;100.00;100909.97;5259678;28;40121;-83
2022/12/16 00:27:31;;;;;;;52.35;33.08;;;;;;;-2.91;100.00;100907.25;5277501;28;20076;-83
2022/12/16 00:30:03;;;;;;;51.70;32.58;;;;;;;-2.85;100.00;100907.91;5259875;28;20014;-82
2022/12/16 00:32:34;;;;;;;55.33;32.70;;;;;;;-2.80;100.00;100912.97;5261000;28;20429;-83
2022/12/16 00:35:06;;;;;;;53.83;32.83;;;;;;;-2.74;100.00;100917.09;5259638;28;20022;-83
2022/12/16 00:37:37;;;;;;;54.00;32.78;;;;;;;-2.70;100.00;100913.47;5260334;28;20130;-84
2022/12/16 00:40:09;;;;;;;50.55;31.05;;;;;;;-2.68;100.00;100916.91;5259323;28;20804;-83
2022/12/16 00:42:40;;;;;;;42.22;29.52;;;;;;;-2.62;100.00;100911.44;5261137;28;20045;-83
2022/12/16 00:45:11;;;;;;;50.05;31.40;;;;;;;-2.59;100.00;100915.72;5260255;28;20048;-83
2022/12/16 00:47:43;;;;;;;46.20;31.33;;;;;;;-2.52;100.00;100911.97;5242880;28;20087;-84
2022/12/16 00:50:15;;;;;;;50.75;32.13;;;;;;;-2.49;100.00;100910.09;5261734;28;20026;-83
2022/12/16 00:52:47;;;;;;;46.88;30.45;;;;;;;-2.41;100.00;100917.63;5246076;28;20018;-85
2022/12/16 00:55:19;;;;;;;46.65;29.90;;;;;;;-2.42;100.00;100910.72;5265044;28;20014;-84
2022/12/16 00:57:50;;;;;;;45.88;30.90;;;;;;;-2.36;100.00;100923.53;5276544;28;20081;-84
2022/12/16 01:00:22;;;;;;;47.88;31.65;;;;;;;-2.40;100.00;100913.25;5270775;28;20030;-83
2022/12/16 01:02:53;;;;;;;48.70;31.23;;;;;;;-2.35;100.00;100927.00;5266096;28;20021;-83
2022/12/16 01:05:27;;;;;;;48.03;31.88;;;;;;;-2.32;100.00;100919.03;5263443;28;20072;-84
2022/12/16 01:07:59;;;;;;;47.70;31.08;;;;;;;-2.37;100.00;100920.97;5254345;28;20113;-83
2022/12/16 01:10:30;;;;;;;49.72;32.20;;;;;;;-2.35;100.00;100924.38;5263541;28;20100;-84
2022/12/16 01:13:01;;;;;;;49.90;31.83;;;;;;;-2.29;100.00;100925.00;5263516;28;20037;-84
2022/12/16 01:15:33;;;;;;;53.47;31.45;;;;;;;-2.26;100.00;100929.28;5251172;28;20025;-83
2022/12/16 01:18:04;;;;;;;50.88;31.25;;;;;;;-2.24;100.00;100937.91;5263077;28;20025;-83
2022/12/16 01:20:37;;;;;;;49.35;29.55;;;;;;;-2.20;100.00;100936.03;5263187;28;20036;-83
2022/12/16 01:23:08;;;;;;;43.15;29.42;;;;;;;-2.08;100.00;100945.16;5263267;28;20377;-83
2022/12/16 01:25:40;;;;;;;43.88;27.40;;;;;;;-2.05;100.00;100947.63;5261478;28;20037;-84
2022/12/16 01:28:11;;;;;;;50.63;31.27;;;;;;;-2.16;100.00;100946.28;5260500;28;20034;-83
2022/12/16 01:30:42;;;;;;;47.00;31.65;;;;;;;-2.13;100.00;100953.16;5254468;28;20091;-83
2022/12/16 01:33:14;;;;;;;44.95;30.58;;;;;;;-2.13;100.00;100954.00;5262048;28;20095;-84
2022/12/16 01:35:46;;;;;;;46.53;29.50;;;;;;;-2.14;100.00;100960.16;5260607;28;20164;-84
2022/12/16 01:38:17;;;;;;;46.42;30.42;;;;;;;-2.13;100.00;100961.00;5260479;28;20033;-84
2022/12/16 01:40:48;;;;;;;43.83;29.80;;;;;;;-2.08;100.00;100960.84;5252909;28;20490;-84
2022/12/16 01:43:25;;;;;;;50.88;32.28;;;;;;;-2.16;100.00;100976.81;5261226;28;20544;-84
2022/12/16 01:46:05;;;;;;;;;;;;;;;-2.06;100.00;100972.94;5259722;28;20386;-84
2022/12/16 01:48:54;;;;;;;51.15;30.63;;;;;;;-2.17;100.00;100975.13;5259930;28;20028;-84
2022/12/16 01:51:38;;;;;;;44.20;28.90;;;;;;;-2.06;100.00;100978.16;5259103;28;20025;-84
2022/12/16 01:54:25;;;;;;;52.25;32.92;;;;;;;-2.07;100.00;100976.44;5259678;28;20025;-84
2022/12/16 01:57:01;;;;;;;47.08;28.52;;;;;;;-1.96;100.00;100981.28;5256781;28;20104;-84
2022/12/16 01:59:36;;;;;;;42.50;29.33;;;;;;;-1.94;100.00;100976.84;5259717;28;20033;-84
2022/12/16 02:02:08;;;;;;;46.67;31.65;;;;;;;-2.01;100.00;100978.00;5257079;28;20108;-84
2022/12/16 02:05:19;;;;;;;49.00;31.77;;;;;;;-2.03;100.00;100987.63;5259858;28;20359;-83
2022/12/16 02:07:31;;;;;;;48.80;31.33;;;;;;;-2.06;100.00;100995.63;5258446;28;21934;-83
2022/12/16 02:10:03;;;;;;;50.22;33.10;;;;;;;-2.11;100.00;100990.56;5243381;28;20021;-84
2022/12/16 02:12:58;;;;;;;46.13;30.58;;;;;;;-2.01;100.00;100989.28;5260969;28;20364;-84
2022/12/16 02:15:44;;;;;;;52.28;31.38;;;;;;;-2.01;100.00;100993.69;5259830;28;20018;-85
2022/12/16 02:18:34;;;;;;;49.65;31.02;;;;;;;-2.02;100.00;100992.81;5262252;28;20021;-84
2022/12/16 02:21:21;;;;;;;52.35;32.47;;;;;;;-2.04;100.00;101010.31;5266705;28;27181;-83
2022/12/16 02:24:14;;;;;;;46.70;31.30;;;;;;;-2.00;100.00;101004.09;5269631;28;20417;-83
2022/12/16 02:27:16;;;;;;;52.45;33.22;;;;;;;-1.98;100.00;101012.72;5264582;28;20037;-84
2022/12/16 02:29:56;;;;;;;50.47;33.45;;;;;;;-2.04;100.00;101009.47;5262379;28;20029;-84
2022/12/16 02:32:47;;;;;;;49.78;32.72;;;;;;;-2.01;100.00;101006.75;5258047;28;20048;-84
2022/12/16 02:35:48;;;;;;;45.88;32.22;;;;;;;-2.04;100.00;101015.53;5259033;28;20026;-85
2022/12/16 02:38:19;;;;;;;52.60;34.33;;;;;;;-2.10;100.00;101010.56;5259803;28;20041;-85
2022/12/16 02:40:59;;;;;;;53.70;33.95;;;;;;;-2.00;100.00;101022.38;5258452;28;20404;-85
2022/12/16 02:43:49;;;;;;;49.70;32.67;;;;;;;-1.95;100.00;101009.13;5259391;28;20429;-84
2022/12/16 02:46:25;;;;;;;51.55;33.22;;;;;;;-1.99;100.00;101016.22;5258997;28;20041;-84
2022/12/16 02:49:05;;;;;;;57.00;34.90;;;;;;;-1.96;100.00;101021.34;5256504;28;20347;-84
2022/12/16 02:51:37;;;;;;;54.03;34.60;;;;;;;-1.97;100.00;101019.63;5256695;28;20025;-84
2022/12/16 02:54:10;;;;;;;54.20;35.58;;;;;;;-2.01;100.00;101018.06;5238714;28;20033;-84
2022/12/16 02:57:26;;;;;;;57.67;35.97;;;;;;;-2.01;100.00;101019.81;5256749;28;20040;-84
2022/12/16 03:00:12;;;;;;;54.10;36.25;;;;;;;-2.06;100.00;101019.16;5210614;28;20374;-84
2022/12/16 03:03:00;;;;;;;57.30;36.00;;;;;;;-2.06;100.00;101027.81;5237503;28;20506;-84
2022/12/16 03:05:35;;;;;;;53.15;35.97;;;;;;;-2.08;100.00;101027.03;5257246;28;20037;-84
2022/12/16 03:08:13;;;;;;;55.40;36.47;;;;;;;-2.12;100.00;101021.06;5255909;28;20944;-84
2022/12/16 03:10:55;;;;;;;47.38;32.10;;;;;;;-1.99;100.00;101020.63;5256070;28;20099;-84
2022/12/16 03:13:31;;;;;;;56.55;37.22;;;;;;;-2.07;100.00;101023.50;5257274;28;20029;-84
2022/12/16 03:16:06;;;;;;;59.78;38.20;;;;;;;-2.10;100.00;101029.72;5255010;28;20090;-84
2022/12/16 03:18:41;;;;;;;58.28;38.10;;;;;;;-2.13;100.00;101027.19;5257976;28;20111;-84
2022/12/16 03:21:14;;;;;;;62.28;38.38;;;;;;;-2.19;100.00;101032.66;5238195;28;20515;-84
2022/12/16 03:23:55;;;;;;;62.13;39.75;;;;;;;-2.17;100.00;101037.84;5257181;28;20037;-84
2022/12/16 03:26:36;;;;;;;60.35;39.47;;;;;;;-2.18;100.00;101038.75;5256370;28;20192;-84
2022/12/16 03:29:14;;;;;;;58.90;38.25;;;;;;;-2.23;100.00;101038.88;5255963;28;20033;-83
2022/12/16 03:31:53;;;;;;;57.85;38.70;;;;;;;-2.23;100.00;101040.66;5257515;28;20423;-84
2022/12/16 03:34:54;;;;;;;61.30;39.50;;;;;;;-2.22;100.00;101038.00;5256348;28;20355;-83
2022/12/16 03:37:30;;;;;;;62.08;37.17;;;;;;;-2.27;100.00;101034.69;5233551;28;20117;-83
2022/12/16 03:40:06;;;;;;;58.92;38.63;;;;;;;-2.22;100.00;101042.38;5264818;28;20140;-83
2022/12/16 03:42:39;;;;;;;63.88;40.53;;;;;;;-2.24;100.00;101049.41;5266820;28;20032;-83
2022/12/16 03:45:18;;;;;;;61.67;38.75;;;;;;;-2.22;100.00;101047.59;5265253;28;20040;-83
2022/12/16 03:47:50;;;;;;;63.72;38.55;;;;;;;-2.16;100.00;101055.22;5259956;28;20131;-83
2022/12/16 03:50:29;;;;;;;61.92;39.08;;;;;;;-2.13;100.00;101055.09;5256427;28;20061;-83
2022/12/16 03:53:01;;;;;;;61.40;39.88;;;;;;;-2.11;100.00;101058.50;5256225;28;20037;-84
2022/12/16 03:55:33;;;;;;;59.25;38.70;;;;;;;-2.11;100.00;101059.34;5257024;28;20524;-83
2022/12/16 03:58:04;;;;;;;68.90;41.92;;;;;;;-2.03;100.00;101059.09;5256711;28;20026;-83
2022/12/16 04:00:35;;;;;;;73.45;42.38;;;;;;;-2.04;100.00;101061.75;5257257;28;20028;-84
2022/12/16 04:03:07;;;;;;;63.75;40.35;;;;;;;-2.00;100.00;101065.94;5257861;28;20025;-83
2022/12/16 04:05:38;;;;;;;60.22;38.60;;;;;;;-1.98;100.00;101061.50;5237432;28;20033;-83
2022/12/16 04:08:09;;;;;;;61.55;39.30;;;;;;;-1.92;100.00;101067.38;5256109;28;20037;-84
2022/12/16 04:25:11;;;;;;;58.92;38.33;;;;;;;-1.74;100.00;101091.13;5257901;28;20041;-83
2022/12/16 04:27:45;;;;;;;71.03;40.55;;;;;;;-1.76;100.00;101100.81;5265347;28;20054;-84
2022/12/16 04:30:18;;;;;;;69.32;43.10;;;;;;;-1.75;100.00;101097.28;5265326;28;20471;-84
